sensor_id;sensor_type;location;lat;lon;timestamp;temperature;humidity
66190;DHT22;52992;52.084;5.412;2022-08-19T00:01:34;23.60;61.50
66190;DHT22;52992;52.084;5.412;2022-08-19T00:04:07;23.60;61.50
66190;DHT22;52992;52.084;5.412;2022-08-19T00:06:36;23.60;61.40
66190;DHT22;52992;52.084;5.412;2022-08-19T00:09:06;23.50;61.60
66190;DHT22;52992;52.084;5.412;2022-08-19T00:11:34;23.50;61.60
66190;DHT22;52992;52.084;5.412;2022-08-19T00:14:05;23.50;61.50
66190;DHT22;52992;52.084;5.412;2022-08-19T00:16:32;23.50;61.40
66190;DHT22;52992;52.084;5.412;2022-08-19T00:18:59;23.50;61.20
66190;DHT22;52992;52.084;5.412;2022-08-19T00:21:27;23.50;61.00
66190;DHT22;52992;52.084;5.412;2022-08-19T00:23:56;23.50;60.90
66190;DHT22;52992;52.084;5.412;2022-08-19T00:26:27;23.50;60.70
66190;DHT22;52992;52.084;5.412;2022-08-19T00:28:55;23.50;60.40
66190;DHT22;52992;52.084;5.412;2022-08-19T00:31:22;23.40;60.40
66190;DHT22;52992;52.084;5.412;2022-08-19T00:33:48;23.40;60.80
66190;DHT22;52992;52.084;5.412;2022-08-19T00:36:17;23.40;61.00
66190;DHT22;52992;52.084;5.412;2022-08-19T00:38:44;23.30;61.10
66190;DHT22;52992;52.084;5.412;2022-08-19T00:41:16;23.30;61.90
66190;DHT22;52992;52.084;5.412;2022-08-19T00:43:57;23.30;61.10
66190;DHT22;52992;52.084;5.412;2022-08-19T00:46:23;23.30;61.10
66190;DHT22;52992;52.084;5.412;2022-08-19T00:48:50;23.30;60.80
66190;DHT22;52992;52.084;5.412;2022-08-19T00:51:17;23.30;60.50
66190;DHT22;52992;52.084;5.412;2022-08-19T00:53:44;23.20;60.20
66190;DHT22;52992;52.084;5.412;2022-08-19T00:56:11;23.20;60.40
66190;DHT22;52992;52.084;5.412;2022-08-19T00:58:38;23.20;60.70
66190;DHT22;52992;52.084;5.412;2022-08-19T01:01:06;23.10;60.80
66190;DHT22;52992;52.084;5.412;2022-08-19T01:03:34;23.10;61.10
66190;DHT22;52992;52.084;5.412;2022-08-19T01:06:21;23.10;60.90
66190;DHT22;52992;52.084;5.412;2022-08-19T01:08:48;23.10;60.90
66190;DHT22;52992;52.084;5.412;2022-08-19T01:11:16;23.00;60.70
66190;DHT22;52992;52.084;5.412;2022-08-19T01:13:44;23.00;60.80
66190;DHT22;52992;52.084;5.412;2022-08-19T01:16:17;23.00;61.00
66190;DHT22;52992;52.084;5.412;2022-08-19T01:18:44;23.00;61.10
66190;DHT22;52992;52.084;5.412;2022-08-19T01:23:52;22.90;61.40
66190;DHT22;52992;52.084;5.412;2022-08-19T01:26:21;22.90;61.40
66190;DHT22;52992;52.084;5.412;2022-08-19T01:28:52;22.90;61.40
66190;DHT22;52992;52.084;5.412;2022-08-19T01:31:24;22.90;61.40
66190;DHT22;52992;52.084;5.412;2022-08-19T01:33:55;22.90;61.30
66190;DHT22;52992;52.084;5.412;2022-08-19T01:36:30;22.80;61.00
66190;DHT22;52992;52.084;5.412;2022-08-19T01:38:58;22.80;61.00
66190;DHT22;52992;52.084;5.412;2022-08-19T01:41:26;22.80;61.00
66190;DHT22;52992;52.084;5.412;2022-08-19T01:43:53;22.80;61.40
66190;DHT22;52992;52.084;5.412;2022-08-19T01:46:41;22.80;61.40
66190;DHT22;52992;52.084;5.412;2022-08-19T01:49:08;22.80;61.40
66190;DHT22;52992;52.084;5.412;2022-08-19T01:51:37;22.80;61.50
66190;DHT22;52992;52.084;5.412;2022-08-19T01:54:11;22.80;61.80
66190;DHT22;52992;52.084;5.412;2022-08-19T01:56:38;22.80;62.00
66190;DHT22;52992;52.084;5.412;2022-08-19T01:59:10;22.70;61.60
66190;DHT22;52992;52.084;5.412;2022-08-19T02:01:38;22.80;61.50
66190;DHT22;52992;52.084;5.412;2022-08-19T02:04:06;22.80;61.70
66190;DHT22;52992;52.084;5.412;2022-08-19T02:06:33;22.80;61.80
66190;DHT22;52992;52.084;5.412;2022-08-19T02:09:00;22.70;61.70
66190;DHT22;52992;52.084;5.412;2022-08-19T02:11:30;22.70;61.70
66190;DHT22;52992;52.084;5.412;2022-08-19T02:13:59;22.70;61.80
66190;DHT22;52992;52.084;5.412;2022-08-19T02:16:26;22.70;61.70
66190;DHT22;52992;52.084;5.412;2022-08-19T02:18:53;22.70;61.80
66190;DHT22;52992;52.084;5.412;2022-08-19T02:21:22;22.70;61.60
66190;DHT22;52992;52.084;5.412;2022-08-19T02:23:50;22.70;61.40
66190;DHT22;52992;52.084;5.412;2022-08-19T02:26:18;22.70;61.10
66190;DHT22;52992;52.084;5.412;2022-08-19T02:28:45;22.60;60.80
66190;DHT22;52992;52.084;5.412;2022-08-19T02:31:15;22.60;61.00
66190;DHT22;52992;52.084;5.412;2022-08-19T02:33:42;22.60;61.00
66190;DHT22;52992;52.084;5.412;2022-08-19T02:36:11;22.60;61.00
66190;DHT22;52992;52.084;5.412;2022-08-19T02:38:38;22.60;61.20
66190;DHT22;52992;52.084;5.412;2022-08-19T02:41:11;22.60;61.20
66190;DHT22;52992;52.084;5.412;2022-08-19T02:43:39;22.50;61.20
66190;DHT22;52992;52.084;5.412;2022-08-19T02:46:32;22.50;61.20
66190;DHT22;52992;52.084;5.412;2022-08-19T02:49:06;22.50;61.20
66190;DHT22;52992;52.084;5.412;2022-08-19T02:51:37;22.50;61.10
66190;DHT22;52992;52.084;5.412;2022-08-19T02:54:07;22.50;61.10
66190;DHT22;52992;52.084;5.412;2022-08-19T02:56:35;22.50;61.20
66190;DHT22;52992;52.084;5.412;2022-08-19T02:59:04;22.40;60.90
66190;DHT22;52992;52.084;5.412;2022-08-19T03:01:38;22.40;60.90
66190;DHT22;52992;52.084;5.412;2022-08-19T03:04:08;22.40;60.70
66190;DHT22;52992;52.084;5.412;2022-08-19T03:06:40;22.40;60.80
66190;DHT22;52992;52.084;5.412;2022-08-19T03:09:08;22.40;61.10
66190;DHT22;52992;52.084;5.412;2022-08-19T03:11:36;22.40;61.10
66190;DHT22;52992;52.084;5.412;2022-08-19T03:14:03;22.30;61.30
66190;DHT22;52992;52.084;5.412;2022-08-19T03:16:33;22.30;61.40
66190;DHT22;52992;52.084;5.412;2022-08-19T03:19:02;22.30;61.40
66190;DHT22;52992;52.084;5.412;2022-08-19T03:21:31;22.30;61.30
66190;DHT22;52992;52.084;5.412;2022-08-19T03:24:00;22.20;61.30
66190;DHT22;52992;52.084;5.412;2022-08-19T03:26:27;22.20;61.50
66190;DHT22;52992;52.084;5.412;2022-08-19T03:28:55;22.20;61.50
66190;DHT22;52992;52.084;5.412;2022-08-19T03:31:26;22.20;61.70
66190;DHT22;52992;52.084;5.412;2022-08-19T03:34:15;22.20;61.80
66190;DHT22;52992;52.084;5.412;2022-08-19T03:36:44;22.20;61.90
66190;DHT22;52992;52.084;5.412;2022-08-19T03:39:12;22.20;61.90
66190;DHT22;52992;52.084;5.412;2022-08-19T03:41:41;22.20;61.80
66190;DHT22;52992;52.084;5.412;2022-08-19T03:44:16;22.20;61.70
66190;DHT22;52992;52.084;5.412;2022-08-19T03:46:46;22.20;61.70
66190;DHT22;52992;52.084;5.412;2022-08-19T03:49:14;22.20;61.60
66190;DHT22;52992;52.084;5.412;2022-08-19T03:51:44;22.20;61.50
66190;DHT22;52992;52.084;5.412;2022-08-19T03:54:14;22.20;61.40
66190;DHT22;52992;52.084;5.412;2022-08-19T03:56:43;22.10;61.20
66190;DHT22;52992;52.084;5.412;2022-08-19T03:59:26;22.20;61.30
66190;DHT22;52992;52.084;5.412;2022-08-19T04:01:56;22.10;61.30
66190;DHT22;52992;52.084;5.412;2022-08-19T04:04:23;22.10;62.00
66190;DHT22;52992;52.084;5.412;2022-08-19T04:06:55;22.10;61.10
66190;DHT22;52992;52.084;5.412;2022-08-19T04:09:22;22.10;61.20
66190;DHT22;52992;52.084;5.412;2022-08-19T04:11:52;22.00;61.20
66190;DHT22;52992;52.084;5.412;2022-08-19T04:14:28;22.00;61.30
66190;DHT22;52992;52.084;5.412;2022-08-19T04:16:57;22.00;61.40
66190;DHT22;52992;52.084;5.412;2022-08-19T04:19:25;22.00;61.50
66190;DHT22;52992;52.084;5.412;2022-08-19T04:21:54;22.00;61.60
66190;DHT22;52992;52.084;5.412;2022-08-19T04:24:22;22.00;61.60
66190;DHT22;52992;52.084;5.412;2022-08-19T04:26:49;22.00;61.60
66190;DHT22;52992;52.084;5.412;2022-08-19T04:29:22;22.00;61.60
66190;DHT22;52992;52.084;5.412;2022-08-19T04:31:53;21.90;61.60
66190;DHT22;52992;52.084;5.412;2022-08-19T04:34:22;21.90;61.30
66190;DHT22;52992;52.084;5.412;2022-08-19T04:36:50;22.00;61.20
66190;DHT22;52992;52.084;5.412;2022-08-19T04:39:21;21.90;61.00
66190;DHT22;52992;52.084;5.412;2022-08-19T04:41:48;21.90;60.80
66190;DHT22;52992;52.084;5.412;2022-08-19T04:44:35;21.90;60.60
66190;DHT22;52992;52.084;5.412;2022-08-19T04:47:11;21.90;60.30
66190;DHT22;52992;52.084;5.412;2022-08-19T04:49:38;21.80;60.30
66190;DHT22;52992;52.084;5.412;2022-08-19T04:52:05;21.80;60.30
66190;DHT22;52992;52.084;5.412;2022-08-19T04:54:32;21.80;60.50
66190;DHT22;52992;52.084;5.412;2022-08-19T04:57:07;21.70;60.60
66190;DHT22;52992;52.084;5.412;2022-08-19T04:59:36;21.70;60.60
66190;DHT22;52992;52.084;5.412;2022-08-19T05:02:04;21.70;60.60
66190;DHT22;52992;52.084;5.412;2022-08-19T05:04:30;21.70;60.40
66190;DHT22;52992;52.084;5.412;2022-08-19T05:07:00;21.70;60.50
66190;DHT22;52992;52.084;5.412;2022-08-19T05:09:29;21.70;60.60
66190;DHT22;52992;52.084;5.412;2022-08-19T05:12:16;21.70;60.70
66190;DHT22;52992;52.084;5.412;2022-08-19T05:14:44;21.80;60.40
66190;DHT22;52992;52.084;5.412;2022-08-19T05:17:11;21.70;60.40
66190;DHT22;52992;52.084;5.412;2022-08-19T05:19:58;21.60;60.60
66190;DHT22;52992;52.084;5.412;2022-08-19T05:22:45;21.80;60.70
66190;DHT22;52992;52.084;5.412;2022-08-19T05:25:17;21.70;60.80
66190;DHT22;52992;52.084;5.412;2022-08-19T05:27:47;21.70;60.80
66190;DHT22;52992;52.084;5.412;2022-08-19T05:30:16;21.70;60.90
66190;DHT22;52992;52.084;5.412;2022-08-19T05:32:43;21.80;61.00
66190;DHT22;52992;52.084;5.412;2022-08-19T05:35:10;21.80;61.00
66190;DHT22;52992;52.084;5.412;2022-08-19T05:37:38;21.90;61.10
66190;DHT22;52992;52.084;5.412;2022-08-19T05:40:08;21.90;61.10
66190;DHT22;52992;52.084;5.412;2022-08-19T05:42:35;21.90;61.20
66190;DHT22;52992;52.084;5.412;2022-08-19T05:45:02;22.00;61.40
66190;DHT22;52992;52.084;5.412;2022-08-19T05:47:29;22.00;61.50
66190;DHT22;52992;52.084;5.412;2022-08-19T05:49:56;22.10;61.70
66190;DHT22;52992;52.084;5.412;2022-08-19T05:52:23;22.20;61.70
66190;DHT22;52992;52.084;5.412;2022-08-19T05:54:52;22.20;61.80
66190;DHT22;52992;52.084;5.412;2022-08-19T05:57:22;22.30;62.00
66190;DHT22;52992;52.084;5.412;2022-08-19T05:59:49;22.40;61.90
66190;DHT22;52992;52.084;5.412;2022-08-19T06:02:30;22.60;62.00
66190;DHT22;52992;52.084;5.412;2022-08-19T06:04:57;22.60;61.90
66190;DHT22;52992;52.084;5.412;2022-08-19T06:07:24;22.70;62.10
66190;DHT22;52992;52.084;5.412;2022-08-19T06:09:51;22.70;62.20
66190;DHT22;52992;52.084;5.412;2022-08-19T06:12:30;22.80;62.20
66190;DHT22;52992;52.084;5.412;2022-08-19T06:15:04;22.90;62.30
66190;DHT22;52992;52.084;5.412;2022-08-19T06:17:31;23.00;62.20
66190;DHT22;52992;52.084;5.412;2022-08-19T06:20:03;23.20;62.10
66190;DHT22;52992;52.084;5.412;2022-08-19T06:22:30;23.30;62.10
66190;DHT22;52992;52.084;5.412;2022-08-19T06:24:57;23.40;62.00
66190;DHT22;52992;52.084;5.412;2022-08-19T06:27:23;23.50;62.00
66190;DHT22;52992;52.084;5.412;2022-08-19T06:29:50;23.60;62.00
66190;DHT22;52992;52.084;5.412;2022-08-19T06:32:17;23.70;62.00
66190;DHT22;52992;52.084;5.412;2022-08-19T06:34:45;23.90;61.90
66190;DHT22;52992;52.084;5.412;2022-08-19T06:37:13;24.00;62.10
66190;DHT22;52992;52.084;5.412;2022-08-19T06:39:42;24.00;62.00
66190;DHT22;52992;52.084;5.412;2022-08-19T06:42:10;24.10;62.20
66190;DHT22;52992;52.084;5.412;2022-08-19T06:44:46;24.30;62.40
66190;DHT22;52992;52.084;5.412;2022-08-19T06:47:20;24.40;62.30
66190;DHT22;52992;52.084;5.412;2022-08-19T06:49:53;24.40;62.30
66190;DHT22;52992;52.084;5.412;2022-08-19T06:52:26;24.40;62.50
66190;DHT22;52992;52.084;5.412;2022-08-19T06:54:54;24.40;62.50
66190;DHT22;52992;52.084;5.412;2022-08-19T06:57:26;24.40;62.50
66190;DHT22;52992;52.084;5.412;2022-08-19T06:59:53;24.40;62.40
66190;DHT22;52992;52.084;5.412;2022-08-19T07:02:22;24.40;62.40
66190;DHT22;52992;52.084;5.412;2022-08-19T07:04:53;24.40;62.40
66190;DHT22;52992;52.084;5.412;2022-08-19T07:07:21;24.40;62.40
66190;DHT22;52992;52.084;5.412;2022-08-19T07:09:50;24.50;62.40
66190;DHT22;52992;52.084;5.412;2022-08-19T07:12:30;24.50;62.40
66190;DHT22;52992;52.084;5.412;2022-08-19T07:15:02;24.50;62.30
66190;DHT22;52992;52.084;5.412;2022-08-19T07:17:30;24.50;62.20
66190;DHT22;52992;52.084;5.412;2022-08-19T07:20:00;24.60;62.10
66190;DHT22;52992;52.084;5.412;2022-08-19T07:22:35;24.60;62.00
66190;DHT22;52992;52.084;5.412;2022-08-19T07:25:02;24.70;62.10
66190;DHT22;52992;52.084;5.412;2022-08-19T07:27:30;24.80;61.80
66190;DHT22;52992;52.084;5.412;2022-08-19T07:30:00;24.90;61.30
66190;DHT22;52992;52.084;5.412;2022-08-19T07:32:27;24.90;61.10
66190;DHT22;52992;52.084;5.412;2022-08-19T07:34:54;25.00;61.00
66190;DHT22;52992;52.084;5.412;2022-08-19T07:37:23;25.10;60.80
66190;DHT22;52992;52.084;5.412;2022-08-19T07:39:59;25.00;60.90
66190;DHT22;52992;52.084;5.412;2022-08-19T07:42:26;25.10;60.80
66190;DHT22;52992;52.084;5.412;2022-08-19T07:44:53;25.20;60.60
66190;DHT22;52992;52.084;5.412;2022-08-19T07:47:20;25.10;60.60
66190;DHT22;52992;52.084;5.412;2022-08-19T07:50:09;25.20;60.50
66190;DHT22;52992;52.084;5.412;2022-08-19T07:52:37;25.30;60.40
66190;DHT22;52992;52.084;5.412;2022-08-19T07:55:07;25.20;60.20
66190;DHT22;52992;52.084;5.412;2022-08-19T07:57:55;25.20;60.10
66190;DHT22;52992;52.084;5.412;2022-08-19T08:00:21;25.20;60.10
66190;DHT22;52992;52.084;5.412;2022-08-19T08:02:50;25.20;60.50
66190;DHT22;52992;52.084;5.412;2022-08-19T08:05:21;25.30;60.80
66190;DHT22;52992;52.084;5.412;2022-08-19T08:08:11;25.60;60.00
66190;DHT22;52992;52.084;5.412;2022-08-19T08:10:58;25.80;59.80
66190;DHT22;52992;52.084;5.412;2022-08-19T08:13:25;25.90;59.00
66190;DHT22;52992;52.084;5.412;2022-08-19T08:15:53;25.90;58.60
66190;DHT22;52992;52.084;5.412;2022-08-19T08:18:25;25.90;57.90
66190;DHT22;52992;52.084;5.412;2022-08-19T08:20:57;25.90;57.80
66190;DHT22;52992;52.084;5.412;2022-08-19T08:23:24;25.90;57.90
66190;DHT22;52992;52.084;5.412;2022-08-19T08:25:54;25.80;58.10
66190;DHT22;52992;52.084;5.412;2022-08-19T08:28:24;25.80;58.20
66190;DHT22;52992;52.084;5.412;2022-08-19T08:30:51;25.90;58.20
66190;DHT22;52992;52.084;5.412;2022-08-19T08:33:23;26.10;57.90
66190;DHT22;52992;52.084;5.412;2022-08-19T08:36:06;26.20;58.10
66190;DHT22;52992;52.084;5.412;2022-08-19T08:38:33;26.20;58.10
66190;DHT22;52992;52.084;5.412;2022-08-19T08:43:40;26.20;57.90
66190;DHT22;52992;52.084;5.412;2022-08-19T08:46:19;26.10;57.50
66190;DHT22;52992;52.084;5.412;2022-08-19T08:52:10;26.00;58.00
66190;DHT22;52992;52.084;5.412;2022-08-19T08:54:41;26.20;58.10
66190;DHT22;52992;52.084;5.412;2022-08-19T09:00:14;26.90;58.50
66190;DHT22;52992;52.084;5.412;2022-08-19T09:02:43;27.40;57.60
66190;DHT22;52992;52.084;5.412;2022-08-19T09:05:10;27.80;56.20
66190;DHT22;52992;52.084;5.412;2022-08-19T09:08:07;28.10;56.50
66190;DHT22;52992;52.084;5.412;2022-08-19T09:10:51;28.20;56.50
66190;DHT22;52992;52.084;5.412;2022-08-19T09:16:03;28.30;56.00
66190;DHT22;52992;52.084;5.412;2022-08-19T09:18:50;28.50;55.70
66190;DHT22;52992;52.084;5.412;2022-08-19T09:21:21;28.60;55.80
66190;DHT22;52992;52.084;5.412;2022-08-19T09:24:00;28.70;56.30
66190;DHT22;52992;52.084;5.412;2022-08-19T09:26:29;28.80;55.10
66190;DHT22;52992;52.084;5.412;2022-08-19T09:29:18;29.00;56.40
66190;DHT22;52992;52.084;5.412;2022-08-19T09:31:48;29.20;54.60
66190;DHT22;52992;52.084;5.412;2022-08-19T09:34:16;29.30;54.40
66190;DHT22;52992;52.084;5.412;2022-08-19T09:36:48;29.40;54.40
66190;DHT22;52992;52.084;5.412;2022-08-19T09:39:16;29.50;53.60
66190;DHT22;52992;52.084;5.412;2022-08-19T09:41:43;29.60;53.50
66190;DHT22;52992;52.084;5.412;2022-08-19T09:44:14;29.70;52.80
66190;DHT22;52992;52.084;5.412;2022-08-19T09:46:42;29.60;53.10
66190;DHT22;52992;52.084;5.412;2022-08-19T09:49:09;29.50;52.80
66190;DHT22;52992;52.084;5.412;2022-08-19T09:51:38;29.20;52.10
66190;DHT22;52992;52.084;5.412;2022-08-19T09:54:06;28.80;52.10
66190;DHT22;52992;52.084;5.412;2022-08-19T09:56:37;28.80;52.80
66190;DHT22;52992;52.084;5.412;2022-08-19T09:59:04;29.00;52.00
66190;DHT22;52992;52.084;5.412;2022-08-19T10:01:31;28.90;51.80
66190;DHT22;52992;52.084;5.412;2022-08-19T10:04:00;28.80;52.00
66190;DHT22;52992;52.084;5.412;2022-08-19T10:06:37;28.70;51.40
66190;DHT22;52992;52.084;5.412;2022-08-19T10:09:14;28.70;51.40
66190;DHT22;52992;52.084;5.412;2022-08-19T10:11:43;28.50;51.70
66190;DHT22;52992;52.084;5.412;2022-08-19T10:14:20;28.60;53.00
66190;DHT22;52992;52.084;5.412;2022-08-19T10:16:50;29.20;52.20
66190;DHT22;52992;52.084;5.412;2022-08-19T10:19:19;29.40;51.70
66190;DHT22;52992;52.084;5.412;2022-08-19T10:21:53;29.60;51.70
66190;DHT22;52992;52.084;5.412;2022-08-19T10:24:26;29.60;52.00
66190;DHT22;52992;52.084;5.412;2022-08-19T10:26:54;29.90;52.00
66190;DHT22;52992;52.084;5.412;2022-08-19T10:29:24;30.30;52.00
66190;DHT22;52992;52.084;5.412;2022-08-19T10:32:02;30.40;51.00
66190;DHT22;52992;52.084;5.412;2022-08-19T10:34:30;30.50;51.30
66190;DHT22;52992;52.084;5.412;2022-08-19T10:36:58;30.50;51.40
66190;DHT22;52992;52.084;5.412;2022-08-19T10:39:30;30.40;51.30
66190;DHT22;52992;52.084;5.412;2022-08-19T10:42:08;30.40;51.10
66190;DHT22;52992;52.084;5.412;2022-08-19T10:44:37;30.60;50.60
66190;DHT22;52992;52.084;5.412;2022-08-19T10:47:04;30.70;50.20
66190;DHT22;52992;52.084;5.412;2022-08-19T10:49:50;30.80;50.40
66190;DHT22;52992;52.084;5.412;2022-08-19T10:52:42;31.10;50.10
66190;DHT22;52992;52.084;5.412;2022-08-19T10:55:18;31.20;49.80
66190;DHT22;52992;52.084;5.412;2022-08-19T10:58:04;31.40;48.80
66190;DHT22;52992;52.084;5.412;2022-08-19T11:00:37;31.30;48.80
66190;DHT22;52992;52.084;5.412;2022-08-19T11:03:03;31.30;49.70
66190;DHT22;52992;52.084;5.412;2022-08-19T11:05:30;31.70;48.80
66190;DHT22;52992;52.084;5.412;2022-08-19T11:08:06;32.20;47.20
66190;DHT22;52992;52.084;5.412;2022-08-19T11:10:51;32.80;46.30
66190;DHT22;52992;52.084;5.412;2022-08-19T11:13:20;32.90;44.80
66190;DHT22;52992;52.084;5.412;2022-08-19T11:15:47;32.90;45.40
66190;DHT22;52992;52.084;5.412;2022-08-19T11:18:14;32.90;44.30
66190;DHT22;52992;52.084;5.412;2022-08-19T11:20:40;32.80;44.20
66190;DHT22;52992;52.084;5.412;2022-08-19T11:23:07;32.40;46.50
66190;DHT22;52992;52.084;5.412;2022-08-19T11:25:34;32.40;48.00
66190;DHT22;52992;52.084;5.412;2022-08-19T11:28:04;32.50;46.70
66190;DHT22;52992;52.084;5.412;2022-08-19T11:30:32;32.20;46.90
66190;DHT22;52992;52.084;5.412;2022-08-19T11:32:59;32.00;46.70
66190;DHT22;52992;52.084;5.412;2022-08-19T11:35:27;31.60;48.70
66190;DHT22;52992;52.084;5.412;2022-08-19T11:37:54;31.70;49.80
66190;DHT22;52992;52.084;5.412;2022-08-19T11:40:22;32.00;48.50
66190;DHT22;52992;52.084;5.412;2022-08-19T11:42:49;32.30;47.90
66190;DHT22;52992;52.084;5.412;2022-08-19T11:45:27;32.80;46.50
66190;DHT22;52992;52.084;5.412;2022-08-19T11:47:55;33.20;47.30
66190;DHT22;52992;52.084;5.412;2022-08-19T11:50:23;33.60;46.40
66190;DHT22;52992;52.084;5.412;2022-08-19T11:52:52;34.10;45.30
66190;DHT22;52992;52.084;5.412;2022-08-19T11:55:20;34.60;43.10
66190;DHT22;52992;52.084;5.412;2022-08-19T11:57:48;34.50;42.30
66190;DHT22;52992;52.084;5.412;2022-08-19T12:00:15;34.30;42.70
66190;DHT22;52992;52.084;5.412;2022-08-19T12:02:42;34.00;41.90
66190;DHT22;52992;52.084;5.412;2022-08-19T12:05:09;33.70;42.20
66190;DHT22;52992;52.084;5.412;2022-08-19T12:07:39;33.30;43.20
66190;DHT22;52992;52.084;5.412;2022-08-19T12:10:07;32.80;44.50
66190;DHT22;52992;52.084;5.412;2022-08-19T12:12:36;33.10;44.50
66190;DHT22;52992;52.084;5.412;2022-08-19T12:15:10;34.20;41.90
66190;DHT22;52992;52.084;5.412;2022-08-19T12:17:37;34.40;40.50
66190;DHT22;52992;52.084;5.412;2022-08-19T12:20:05;33.80;42.40
66190;DHT22;52992;52.084;5.412;2022-08-19T12:22:32;33.20;45.00
66190;DHT22;52992;52.084;5.412;2022-08-19T12:24:59;32.70;44.00
66190;DHT22;52992;52.084;5.412;2022-08-19T12:27:27;32.20;45.40
66190;DHT22;52992;52.084;5.412;2022-08-19T12:30:10;31.70;46.00
66190;DHT22;52992;52.084;5.412;2022-08-19T12:32:38;31.40;47.40
66190;DHT22;52992;52.084;5.412;2022-08-19T12:35:06;31.10;48.20
66190;DHT22;52992;52.084;5.412;2022-08-19T12:37:33;30.90;48.00
66190;DHT22;52992;52.084;5.412;2022-08-19T12:40:00;30.80;48.00
66190;DHT22;52992;52.084;5.412;2022-08-19T12:42:27;30.90;47.40
66190;DHT22;52992;52.084;5.412;2022-08-19T12:44:55;30.90;47.70
66190;DHT22;52992;52.084;5.412;2022-08-19T12:47:22;30.70;48.30
66190;DHT22;52992;52.084;5.412;2022-08-19T12:49:49;30.50;48.60
66190;DHT22;52992;52.084;5.412;2022-08-19T12:52:22;30.30;48.90
66190;DHT22;52992;52.084;5.412;2022-08-19T12:54:51;30.20;49.30
66190;DHT22;52992;52.084;5.412;2022-08-19T12:57:24;30.30;49.70
66190;DHT22;52992;52.084;5.412;2022-08-19T13:00:00;30.30;50.00
66190;DHT22;52992;52.084;5.412;2022-08-19T13:02:30;30.70;48.90
66190;DHT22;52992;52.084;5.412;2022-08-19T13:05:05;31.50;47.60
66190;DHT22;52992;52.084;5.412;2022-08-19T13:07:34;31.60;46.10
66190;DHT22;52992;52.084;5.412;2022-08-19T13:10:02;31.60;46.10
66190;DHT22;52992;52.084;5.412;2022-08-19T13:12:29;32.50;44.70
66190;DHT22;52992;52.084;5.412;2022-08-19T13:14:55;32.80;45.10
66190;DHT22;52992;52.084;5.412;2022-08-19T13:17:22;32.50;44.90
66190;DHT22;52992;52.084;5.412;2022-08-19T13:19:49;32.40;45.30
66190;DHT22;52992;52.084;5.412;2022-08-19T13:22:17;33.30;43.70
66190;DHT22;52992;52.084;5.412;2022-08-19T13:24:44;33.90;42.00
66190;DHT22;52992;52.084;5.412;2022-08-19T13:27:13;33.80;40.70
66190;DHT22;52992;52.084;5.412;2022-08-19T13:29:43;33.10;43.00
66190;DHT22;52992;52.084;5.412;2022-08-19T13:32:30;32.20;44.50
66190;DHT22;52992;52.084;5.412;2022-08-19T13:35:16;31.40;46.70
66190;DHT22;52992;52.084;5.412;2022-08-19T13:37:44;30.80;48.60
66190;DHT22;52992;52.084;5.412;2022-08-19T13:40:18;30.30;49.90
66190;DHT22;52992;52.084;5.412;2022-08-19T13:42:48;30.00;51.30
66190;DHT22;52992;52.084;5.412;2022-08-19T13:45:21;29.70;51.00
66190;DHT22;52992;52.084;5.412;2022-08-19T13:47:51;29.50;51.20
66190;DHT22;52992;52.084;5.412;2022-08-19T13:50:27;29.30;52.20
66190;DHT22;52992;52.084;5.412;2022-08-19T13:52:55;29.10;53.50
66190;DHT22;52992;52.084;5.412;2022-08-19T13:55:23;28.90;55.10
66190;DHT22;52992;52.084;5.412;2022-08-19T13:57:59;28.60;56.60
66190;DHT22;52992;52.084;5.412;2022-08-19T14:00:30;28.20;58.20
66190;DHT22;52992;52.084;5.412;2022-08-19T14:02:57;27.80;58.90
66190;DHT22;52992;52.084;5.412;2022-08-19T14:05:26;27.40;60.50
66190;DHT22;52992;52.084;5.412;2022-08-19T14:07:54;27.00;62.00
66190;DHT22;52992;52.084;5.412;2022-08-19T14:10:22;26.90;62.70
66190;DHT22;52992;52.084;5.412;2022-08-19T14:12:53;26.80;63.50
66190;DHT22;52992;52.084;5.412;2022-08-19T14:15:22;26.80;64.20
66190;DHT22;52992;52.084;5.412;2022-08-19T14:17:50;26.70;64.80
66190;DHT22;52992;52.084;5.412;2022-08-19T14:20:18;26.70;65.70
66190;DHT22;52992;52.084;5.412;2022-08-19T14:22:46;26.60;66.20
66190;DHT22;52992;52.084;5.412;2022-08-19T14:25:17;26.50;67.10
66190;DHT22;52992;52.084;5.412;2022-08-19T14:27:45;26.40;68.20
66190;DHT22;52992;52.084;5.412;2022-08-19T14:30:14;26.30;68.80
66190;DHT22;52992;52.084;5.412;2022-08-19T14:32:41;26.40;69.20
66190;DHT22;52992;52.084;5.412;2022-08-19T14:35:11;26.40;69.70
66190;DHT22;52992;52.084;5.412;2022-08-19T14:37:40;26.40;69.40
66190;DHT22;52992;52.084;5.412;2022-08-19T14:40:17;26.50;69.20
66190;DHT22;52992;52.084;5.412;2022-08-19T14:42:44;26.60;69.40
66190;DHT22;52992;52.084;5.412;2022-08-19T14:45:11;26.70;69.20
66190;DHT22;52992;52.084;5.412;2022-08-19T14:47:38;26.80;69.40
66190;DHT22;52992;52.084;5.412;2022-08-19T14:50:15;26.90;69.20
66190;DHT22;52992;52.084;5.412;2022-08-19T14:52:45;27.00;69.80
66190;DHT22;52992;52.084;5.412;2022-08-19T14:55:13;27.10;69.80
66190;DHT22;52992;52.084;5.412;2022-08-19T14:57:41;27.20;69.20
66190;DHT22;52992;52.084;5.412;2022-08-19T15:00:10;27.20;69.00
66190;DHT22;52992;52.084;5.412;2022-08-19T15:02:41;27.20;68.80
66190;DHT22;52992;52.084;5.412;2022-08-19T15:05:10;27.20;69.00
66190;DHT22;52992;52.084;5.412;2022-08-19T15:07:37;27.20;68.90
66190;DHT22;52992;52.084;5.412;2022-08-19T15:10:06;27.20;69.10
66190;DHT22;52992;52.084;5.412;2022-08-19T15:12:34;27.10;69.00
66190;DHT22;52992;52.084;5.412;2022-08-19T15:15:01;27.10;68.90
66190;DHT22;52992;52.084;5.412;2022-08-19T15:17:28;27.20;68.90
66190;DHT22;52992;52.084;5.412;2022-08-19T15:20:14;27.30;68.80
66190;DHT22;52992;52.084;5.412;2022-08-19T15:22:42;27.40;68.90
66190;DHT22;52992;52.084;5.412;2022-08-19T15:25:11;27.60;68.60
66190;DHT22;52992;52.084;5.412;2022-08-19T15:27:40;27.80;68.30
66190;DHT22;52992;52.084;5.412;2022-08-19T15:30:09;28.00;68.20
66190;DHT22;52992;52.084;5.412;2022-08-19T15:32:37;28.10;68.10
66190;DHT22;52992;52.084;5.412;2022-08-19T15:35:06;28.20;67.90
66190;DHT22;52992;52.084;5.412;2022-08-19T15:37:33;28.30;67.90
66190;DHT22;52992;52.084;5.412;2022-08-19T15:40:04;28.30;67.50
66190;DHT22;52992;52.084;5.412;2022-08-19T15:42:32;28.40;67.60
66190;DHT22;52992;52.084;5.412;2022-08-19T15:44:59;28.50;67.80
66190;DHT22;52992;52.084;5.412;2022-08-19T15:47:28;28.50;66.90
66190;DHT22;52992;52.084;5.412;2022-08-19T15:50:31;28.40;66.80
66190;DHT22;52992;52.084;5.412;2022-08-19T15:53:01;28.20;68.30
66190;DHT22;52992;52.084;5.412;2022-08-19T15:55:32;27.90;67.40
66190;DHT22;52992;52.084;5.412;2022-08-19T15:58:04;27.80;68.30
66190;DHT22;52992;52.084;5.412;2022-08-19T16:01:00;27.70;68.30
66190;DHT22;52992;52.084;5.412;2022-08-19T16:03:48;27.80;68.70
66190;DHT22;52992;52.084;5.412;2022-08-19T16:06:51;27.70;68.00